Time;durP1;ratioP1;P1;durP2;ratioP2;P2;SDS_P1;SDS_P2;PMS_P1;PMS_P2;Temp;Humidity;BMP_temperature;BMP_pressure;BME280_temperature;BME280_humidity;BME280_pressure;Samples;Min_cycle;Max_cycle;Signal;HPM_P1;HPM_P2
2021/07/15 00:00:00;;;;;;;3.70;2.07;;;;;;;13.90;100.00;95798.69;5065886;28;20033;-79
2021/07/15 00:02:26;;;;;;;5.23;2.27;;;;;;;13.90;100.00;95807.44;5044030;28;20409;-78
2021/07/15 00:04:52;;;;;;;6.47;2.00;;;;;;;13.83;100.00;95798.63;5043483;28;20021;-79
2021/07/15 00:07:18;;;;;;;3.53;1.87;;;;;;;13.80;100.00;95800.84;5066440;28;20058;-79
2021/07/15 00:09:44;;;;;;;5.93;1.70;;;;;;;13.68;100.00;95803.16;5055120;28;20028;-79
2021/07/15 00:12:14;;;;;;;4.90;1.90;;;;;;;13.62;100.00;95798.66;5054409;28;20024;-79
2021/07/15 00:14:40;;;;;;;3.60;1.60;;;;;;;13.55;100.00;95797.78;5025102;28;20084;-78
2021/07/15 00:17:06;;;;;;;3.50;1.60;;;;;;;13.56;100.00;95789.63;5039687;28;20024;-79
2021/07/15 00:19:33;;;;;;;3.23;1.87;;;;;;;13.40;100.00;95784.59;5046671;28;20043;-79
2021/07/15 00:21:59;;;;;;;5.23;1.90;;;;;;;13.39;100.00;95783.78;5050555;28;20033;-79
2021/07/15 00:24:26;;;;;;;2.50;1.60;;;;;;;13.32;100.00;95779.44;5054259;28;20036;-79
2021/07/15 00:26:52;;;;;;;5.07;1.50;;;;;;;13.25;100.00;95779.38;5040782;28;20028;-79
2021/07/15 00:29:19;;;;;;;4.07;1.60;;;;;;;13.16;100.00;95773.34;5038674;28;20058;-78
2021/07/15 00:31:45;;;;;;;3.60;1.20;;;;;;;13.25;100.00;95774.09;5042941;28;20051;-79
2021/07/15 00:34:11;;;;;;;4.60;1.40;;;;;;;13.25;100.00;95770.66;5058174;28;20044;-78
2021/07/15 00:36:36;;;;;;;4.17;1.30;;;;;;;13.15;100.00;95773.56;5070520;28;20025;-78
2021/07/15 00:39:05;;;;;;;3.70;1.30;;;;;;;13.07;100.00;95769.19;5079201;28;20512;-79
2021/07/15 00:41:30;;;;;;;3.60;1.53;;;;;;;13.12;100.00;95768.63;5056997;28;20033;-79
2021/07/15 00:43:57;;;;;;;4.60;1.83;;;;;;;12.97;100.00;95769.47;5038450;28;20040;-79
2021/07/15 00:46:22;;;;;;;3.70;1.30;;;;;;;12.93;100.00;95772.69;5057205;28;20032;-78
2021/07/15 00:48:48;;;;;;;2.60;1.20;;;;;;;13.01;100.00;95774.38;5080334;28;20477;-80
2021/07/15 00:51:14;;;;;;;6.47;1.20;;;;;;;13.02;100.00;95765.47;5043160;28;20071;-79
2021/07/15 00:53:40;;;;;;;6.53;1.30;;;;;;;13.03;100.00;95767.09;5060983;28;20036;-79
2021/07/15 00:56:08;;;;;;;4.83;1.10;;;;;;;13.09;100.00;95769.00;5041426;28;20024;-77
2021/07/15 00:58:34;;;;;;;3.47;1.20;;;;;;;13.09;100.00;95761.91;5062211;28;20024;-79
2021/07/15 01:01:00;;;;;;;2.90;1.10;;;;;;;13.04;100.00;95771.38;5059952;28;20035;-78
2021/07/15 01:03:26;;;;;;;2.17;1.10;;;;;;;13.03;100.00;95772.38;5039754;28;20042;-79
2021/07/15 01:05:57;;;;;;;2.33;1.03;;;;;;;13.04;100.00;95766.09;5077988;28;20032;-79
2021/07/15 01:08:24;;;;;;;4.20;1.27;;;;;;;13.05;100.00;95770.41;5053201;28;20033;-80
2021/07/15 01:11:22;;;;;;;4.30;1.30;;;;;;;12.93;100.00;95776.13;5040721;28;20733;-78
2021/07/15 01:13:51;;;;;;;5.67;1.73;;;;;;;12.80;100.00;95770.69;5049992;28;20039;-79
2021/07/15 01:16:19;;;;;;;5.13;1.70;;;;;;;12.84;100.00;95779.06;5053489;28;20028;-80
2021/07/15 01:19:02;;;;;;;4.30;2.40;;;;;;;12.87;100.00;95783.97;5073188;28;20035;-79
2021/07/15 01:22:04;;;;;;;3.75;2.10;;;;;;;12.87;100.00;95782.13;5052664;28;20394;-79
2021/07/15 01:25:08;;;;;;;5.13;2.87;;;;;;;12.89;100.00;95779.34;5079190;28;20032;-79
2021/07/15 01:28:15;;;;;;;4.80;2.90;;;;;;;12.81;100.00;95769.72;5037480;28;20485;-78
2021/07/15 01:30:51;;;;;;;5.33;2.77;;;;;;;12.84;100.00;95771.94;5084201;28;20036;-79
2021/07/15 01:33:27;;;;;;;5.60;2.83;;;;;;;12.78;100.00;95772.72;5050601;28;20420;-79
2021/07/15 01:36:03;;;;;;;6.47;2.47;;;;;;;12.64;100.00;95774.38;5072070;28;20393;-79
2021/07/15 01:38:37;;;;;;;5.43;2.73;;;;;;;12.61;100.00;95774.72;5076558;28;20071;-79
2021/07/15 01:41:04;;;;;;;4.20;2.60;;;;;;;12.62;100.00;95778.19;5024130;28;20038;-79
2021/07/15 01:43:38;;;;;;;5.03;3.20;;;;;;;12.60;100.00;95775.72;5044357;28;20442;-79
2021/07/15 01:46:05;;;;;;;6.17;2.80;;;;;;;12.64;100.00;95768.25;5036413;28;20040;-78
2021/07/15 01:48:32;;;;;;;5.23;2.30;;;;;;;12.62;100.00;95770.28;5058907;28;20028;-80
2021/07/15 01:50:59;;;;;;;3.93;2.13;;;;;;;12.69;100.00;95776.44;5056613;28;20059;-78
2021/07/15 01:53:25;;;;;;;5.07;2.03;;;;;;;12.77;100.00;95772.88;5030722;28;20032;-79
2021/07/15 01:55:52;;;;;;;3.47;1.57;;;;;;;12.88;100.00;95767.97;5031079;28;20653;-79
2021/07/15 01:58:19;;;;;;;3.00;1.70;;;;;;;12.99;100.00;95764.03;5045534;28;20025;-79
2021/07/15 02:00:45;;;;;;;1.87;1.40;;;;;;;13.06;100.00;95762.28;5046553;28;20127;-79
2021/07/15 02:03:14;;;;;;;2.53;1.57;;;;;;;13.02;100.00;95773.41;5067795;28;20025;-79
2021/07/15 02:05:40;;;;;;;2.37;1.43;;;;;;;13.00;100.00;95767.47;5048785;28;20028;-79
2021/07/15 02:08:06;;;;;;;1.50;1.17;;;;;;;13.07;100.00;95773.66;5046786;28;20073;-79
2021/07/15 02:10:33;;;;;;;2.13;1.40;;;;;;;13.03;100.00;95772.38;5047943;28;20075;-79
2021/07/15 02:13:00;;;;;;;3.13;1.53;;;;;;;12.96;100.00;95773.13;5055755;28;20067;-78
2021/07/15 02:15:28;;;;;;;2.83;1.03;;;;;;;13.05;100.00;95771.22;5065560;28;20031;-78
2021/07/15 02:17:56;;;;;;;2.20;1.10;;;;;;;13.13;100.00;95773.72;5064618;28;20099;-79
2021/07/15 02:20:24;;;;;;;2.93;1.20;;;;;;;13.21;100.00;95764.84;5048688;28;20031;-78
2021/07/15 02:22:53;;;;;;;2.67;1.10;;;;;;;13.25;100.00;95771.47;5042142;28;20064;-79
2021/07/15 02:25:20;;;;;;;1.30;0.80;;;;;;;13.25;100.00;95766.19;5035205;28;20093;-79
2021/07/15 02:27:48;;;;;;;2.33;0.80;;;;;;;13.40;100.00;95755.53;5078883;28;20028;-79
2021/07/15 02:30:17;;;;;;;2.57;0.77;;;;;;;13.34;100.00;95761.56;5064671;28;20027;-78
2021/07/15 02:32:56;;;;;;;0.90;0.70;;;;;;;13.30;100.00;95762.97;5033425;28;20119;-79
2021/07/15 02:35:28;;;;;;;2.17;0.70;;;;;;;13.28;100.00;95757.88;5055920;28;20020;-79
2021/07/15 02:37:57;;;;;;;2.30;0.80;;;;;;;13.35;100.00;95761.41;5050534;28;20054;-79
2021/07/15 02:40:23;;;;;;;1.37;0.87;;;;;;;13.37;100.00;95779.69;5038532;28;20032;-79
2021/07/15 02:42:49;;;;;;;1.50;1.00;;;;;;;13.37;100.00;95784.97;5070451;28;20032;-79
2021/07/15 02:45:17;;;;;;;1.97;0.90;;;;;;;13.35;100.00;95785.19;5059316;28;20027;-81
2021/07/15 02:47:44;;;;;;;2.17;0.90;;;;;;;13.37;100.00;95785.78;5062538;28;20028;-79
2021/07/15 02:50:13;;;;;;;1.43;0.60;;;;;;;13.40;100.00;95785.41;5082852;28;20021;-79
2021/07/15 02:52:39;;;;;;;1.10;0.67;;;;;;;13.40;100.00;95788.06;5064021;28;20650;-79
2021/07/15 02:55:06;;;;;;;2.83;1.00;;;;;;;13.42;100.00;95793.16;5067983;28;20028;-82
2021/07/15 02:58:10;;;;;;;2.00;0.97;;;;;;;13.41;100.00;95797.63;5056705;28;20367;-80
2021/07/15 03:00:47;;;;;;;2.50;1.00;;;;;;;13.40;100.00;95793.34;5060067;28;20699;-79
2021/07/15 03:03:25;;;;;;;1.83;0.70;;;;;;;13.43;100.00;95805.34;5053176;28;20040;-80
2021/07/15 03:06:07;;;;;;;1.70;1.10;;;;;;;13.46;100.00;95809.47;5064690;28;20047;-79
2021/07/15 03:08:38;;;;;;;2.07;0.90;;;;;;;13.44;100.00;95807.78;5070300;28;20082;-79
2021/07/15 03:11:07;;;;;;;1.73;1.30;;;;;;;13.48;100.00;95799.50;5054408;28;20095;-79
2021/07/15 03:13:34;;;;;;;2.67;0.83;;;;;;;13.51;100.00;95802.59;5049660;28;20031;-79
2021/07/15 03:16:01;;;;;;;1.43;0.80;;;;;;;13.50;100.00;95800.97;5051687;28;20277;-79
2021/07/15 03:18:29;;;;;;;3.77;1.10;;;;;;;13.50;100.00;95810.72;5074684;28;20073;-79
2021/07/15 03:20:57;;;;;;;4.67;1.13;;;;;;;13.49;100.00;95811.72;5050585;28;20032;-79
2021/07/15 03:23:25;;;;;;;2.80;1.42;;;;;;;13.53;100.00;95816.44;5047136;28;20533;-79
2021/07/15 03:25:56;;;;;;;2.13;1.03;;;;;;;13.53;100.00;95824.34;5068545;28;20028;-79
2021/07/15 03:28:26;;;;;;;4.57;1.33;;;;;;;13.51;100.00;95825.53;5051447;28;20074;-79
2021/07/15 03:30:55;;;;;;;7.30;1.70;;;;;;;13.39;100.00;95819.94;5083100;28;20028;-78
2021/07/15 03:33:22;;;;;;;8.77;1.67;;;;;;;13.19;100.00;95814.41;5052962;28;20016;-77
2021/07/15 03:35:48;;;;;;;3.60;1.70;;;;;;;13.13;100.00;95812.50;5063116;28;20063;-80
2021/07/15 03:38:15;;;;;;;2.50;1.60;;;;;;;13.06;100.00;95798.41;5050377;28;20024;-79
2021/07/15 03:40:42;;;;;;;3.37;1.53;;;;;;;13.03;100.00;95804.06;5063891;28;20020;-79
2021/07/15 03:43:10;;;;;;;2.33;1.47;;;;;;;13.02;100.00;95799.78;5062784;28;20110;-79
2021/07/15 03:45:38;;;;;;;4.33;1.47;;;;;;;13.06;100.00;95801.06;5059343;28;20028;-78
2021/07/15 03:48:04;;;;;;;2.13;1.27;;;;;;;13.00;100.00;95809.72;5059786;28;20025;-78
2021/07/15 03:50:31;;;;;;;6.40;1.70;;;;;;;13.05;100.00;95812.63;5052850;28;20032;-79
2021/07/15 03:53:00;;;;;;;3.47;1.57;;;;;;;13.02;100.00;95813.00;5046847;28;20029;-79
2021/07/15 03:55:33;;;;;;;4.67;1.63;;;;;;;13.08;100.00;95804.34;5062679;28;20028;-79
2021/07/15 03:58:04;;;;;;;6.60;1.70;;;;;;;12.98;100.00;95802.81;5065846;28;20519;-79
2021/07/15 04:00:30;;;;;;;3.83;1.70;;;;;;;13.02;100.00;95805.06;5060094;28;20029;-79
2021/07/15 04:03:01;;;;;;;3.53;1.50;;;;;;;13.10;100.00;95805.78;5052191;28;20106;-79
2021/07/15 04:05:29;;;;;;;3.27;1.40;;;;;;;13.13;100.00;95809.88;5042892;28;20039;-79
2021/07/15 04:07:58;;;;;;;4.60;1.00;;;;;;;13.10;100.00;95808.41;5049165;28;20477;-79
2021/07/15 04:10:27;;;;;;;5.77;1.83;;;;;;;13.11;100.00;95807.44;5059594;28;20056;-79
2021/07/15 04:12:56;;;;;;;9.17;3.53;;;;;;;13.09;100.00;95813.88;5063495;28;20493;-80
2021/07/15 04:15:30;;;;;;;12.97;5.40;;;;;;;13.10;100.00;95810.22;5063760;28;20067;-80
2021/07/15 04:17:59;;;;;;;19.50;8.57;;;;;;;13.17;100.00;95806.66;5052032;28;20132;-79
2021/07/15 04:20:26;;;;;;;11.17;4.87;;;;;;;13.23;100.00;95802.47;5038210;28;20024;-79
2021/07/15 04:22:54;;;;;;;6.60;2.87;;;;;;;13.23;100.00;95794.53;5054069;28;20121;-79
2021/07/15 04:25:23;;;;;;;3.30;1.80;;;;;;;13.31;100.00;95797.13;5056671;28;20095;-79
2021/07/15 04:27:56;;;;;;;3.77;1.70;;;;;;;13.26;100.00;95796.03;5061438;28;20033;-80
2021/07/15 04:30:22;;;;;;;1.58;1.23;;;;;;;13.35;100.00;95798.38;5057258;28;20055;-78
2021/07/15 04:32:59;;;;;;;1.40;1.03;;;;;;;13.49;100.00;95799.31;5063065;28;20028;-78
2021/07/15 04:35:27;;;;;;;2.30;1.10;;;;;;;13.44;100.00;95788.50;5074691;28;20191;-79
2021/07/15 04:37:54;;;;;;;3.00;1.60;;;;;;;13.58;100.00;95781.50;5054294;28;20027;-78
2021/07/15 04:40:23;;;;;;;2.30;1.03;;;;;;;13.58;100.00;95789.44;5057303;28;20116;-78
2021/07/15 04:42:51;;;;;;;3.00;0.90;;;;;;;13.75;100.00;95785.56;5066350;28;20422;-79
2021/07/15 04:45:23;;;;;;;3.50;1.10;;;;;;;13.74;100.00;95791.84;5071669;28;20017;-78
2021/07/15 04:47:49;;;;;;;3.73;1.17;;;;;;;13.85;100.00;95788.69;5074450;28;20024;-78
2021/07/15 04:50:18;;;;;;;0.83;0.70;;;;;;;13.86;100.00;95806.19;5044930;28;20035;-78
2021/07/15 04:52:49;;;;;;;2.20;0.63;;;;;;;14.03;100.00;95800.63;5080007;28;20028;-78
2021/07/15 04:55:19;;;;;;;3.70;0.80;;;;;;;14.05;100.00;95802.06;5044732;28;20219;-79
2021/07/15 04:57:47;;;;;;;1.17;0.90;;;;;;;14.17;100.00;95791.78;5036703;28;20112;-77
2021/07/15 05:00:14;;;;;;;3.73;0.90;;;;;;;14.14;100.00;95790.34;5058060;28;20021;-78
2021/07/15 05:02:40;;;;;;;1.70;0.80;;;;;;;14.19;100.00;95783.66;5057216;28;20039;-78
2021/07/15 05:05:08;;;;;;;1.33;0.83;;;;;;;14.09;100.00;95789.28;5058390;28;20435;-77
2021/07/15 05:07:37;;;;;;;2.20;0.70;;;;;;;14.20;100.00;95786.09;5057459;28;20036;-78
2021/07/15 05:10:05;;;;;;;1.77;0.67;;;;;;;14.29;100.00;95782.31;5033234;28;20025;-78
2021/07/15 05:12:31;;;;;;;1.67;0.60;;;;;;;14.18;100.00;95788.13;5042839;28;20482;-78
2021/07/15 05:14:56;;;;;;;1.27;0.60;;;;;;;14.21;100.00;95779.00;5068527;28;20024;-77
2021/07/15 05:17:22;;;;;;;0.77;0.60;;;;;;;14.23;100.00;95780.44;5064851;28;20035;-78
2021/07/15 05:19:50;;;;;;;0.83;0.73;;;;;;;14.31;100.00;95777.63;5057560;28;20028;-78
2021/07/15 05:22:17;;;;;;;5.50;0.70;;;;;;;14.34;100.00;95769.31;5054699;28;20601;-78
2021/07/15 05:24:43;;;;;;;2.00;0.60;;;;;;;14.45;100.00;95772.44;5043864;28;20024;-78
2021/07/15 05:27:09;;;;;;;3.93;0.60;;;;;;;14.61;100.00;95772.16;5066968;28;20623;-78
2021/07/15 05:29:34;;;;;;;2.37;1.07;;;;;;;14.63;100.00;95759.53;5042589;28;20025;-78
2021/07/15 05:32:01;;;;;;;2.80;0.60;;;;;;;14.51;100.00;95763.75;5065577;28;20689;-78
2021/07/15 05:34:27;;;;;;;2.30;0.75;;;;;;;14.48;100.00;95754.34;5039093;28;20029;-78
2021/07/15 05:36:53;;;;;;;2.45;0.98;;;;;;;14.82;100.00;95750.88;5087967;28;20024;-78
2021/07/15 05:39:19;;;;;;;1.07;0.43;;;;;;;14.98;100.00;95756.84;5070682;28;20040;-78
2021/07/15 05:41:45;;;;;;;1.42;0.68;;;;;;;15.02;99.96;95764.22;5075987;28;20036;-78
2021/07/15 05:44:10;;;;;;;1.33;0.40;;;;;;;14.89;99.20;95760.66;5046376;28;20027;-78
2021/07/15 05:46:36;;;;;;;1.00;0.60;;;;;;;15.02;100.00;95763.38;5037705;28;20059;-78
2021/07/15 05:49:02;;;;;;;1.42;0.60;;;;;;;15.05;99.24;95763.78;5063573;28;20036;-78
2021/07/15 05:51:27;;;;;;;1.10;0.50;;;;;;;15.05;99.07;95776.22;5063328;28;20107;-78
2021/07/15 05:53:53;;;;;;;1.25;0.80;;;;;;;15.14;97.58;95771.56;5041859;28;20119;-78
2021/07/15 05:56:19;;;;;;;6.63;1.67;;;;;;;15.13;98.50;95767.28;5058465;28;20100;-79
2021/07/15 05:58:45;;;;;;;6.38;1.40;;;;;;;15.13;98.78;95769.94;5052609;28;20048;-78
2021/07/15 06:01:12;;;;;;;11.90;2.63;;;;;;;15.18;99.87;95781.56;5054730;28;20618;-78
2021/07/15 06:03:37;;;;;;;7.25;1.42;;;;;;;15.02;99.86;95793.34;5050065;28;20063;-78
2021/07/15 06:06:03;;;;;;;2.65;1.25;;;;;;;15.06;100.00;95796.41;5059452;28;20024;-78
2021/07/15 06:08:29;;;;;;;4.65;1.20;;;;;;;15.32;99.56;95796.50;5057755;28;20148;-79
2021/07/15 06:10:55;;;;;;;3.53;1.27;;;;;;;15.39;98.54;95801.81;5076487;28;20036;-78
2021/07/15 06:13:21;;;;;;;1.15;0.60;;;;;;;15.41;99.51;95806.91;5074371;28;20016;-78
2021/07/15 06:15:46;;;;;;;2.72;0.82;;;;;;;15.36;100.00;95806.66;5039970;28;20040;-79
2021/07/15 06:18:12;;;;;;;5.63;0.90;;;;;;;15.33;100.00;95814.00;5046183;28;20027;-78
2021/07/15 06:20:38;;;;;;;1.80;0.60;;;;;;;15.15;100.00;95807.63;5052487;28;20032;-79
2021/07/15 06:23:05;;;;;;;1.13;0.60;;;;;;;15.21;100.00;95814.78;5072385;28;20114;-79
2021/07/15 06:25:30;;;;;;;2.78;0.50;;;;;;;14.82;100.00;95811.78;5048583;28;20659;-79
2021/07/15 06:27:56;;;;;;;1.13;0.40;;;;;;;14.94;100.00;95819.97;5057905;28;20056;-78
2021/07/15 06:30:22;;;;;;;0.93;0.40;;;;;;;14.81;100.00;95811.94;5055936;28;20025;-78
2021/07/15 06:32:48;;;;;;;1.70;0.47;;;;;;;15.26;100.00;95817.66;5070113;28;20358;-79
2021/07/15 06:35:15;;;;;;;1.25;0.45;;;;;;;15.33;100.00;95816.66;5079636;28;20070;-79
2021/07/15 06:37:41;;;;;;;2.65;0.50;;;;;;;15.27;100.00;95819.28;5070287;28;20085;-79
2021/07/15 06:40:11;;;;;;;1.02;0.38;;;;;;;15.47;100.00;95816.72;5058562;28;20644;-78
2021/07/15 06:42:38;;;;;;;1.80;0.40;;;;;;;15.47;100.00;95809.56;5040915;28;20024;-79
2021/07/15 06:45:07;;;;;;;2.03;0.50;;;;;;;15.57;100.00;95819.78;5071564;28;20024;-79
2021/07/15 06:47:33;;;;;;;0.25;0.20;;;;;;;15.61;100.00;95821.00;5066777;28;20091;-78
2021/07/15 06:49:59;;;;;;;1.88;0.40;;;;;;;15.38;100.00;95816.06;5043806;28;20482;-78
2021/07/15 06:52:29;;;;;;;0.40;0.30;;;;;;;15.33;100.00;95816.66;5061668;28;20024;-78
2021/07/15 06:54:57;;;;;;;0.70;0.20;;;;;;;15.43;100.00;95818.13;5036234;28;20409;-78
2021/07/15 06:57:23;;;;;;;2.20;0.60;;;;;;;15.43;100.00;95818.13;5050517;28;20036;-78
2021/07/15 06:59:49;;;;;;;1.00;0.30;;;;;;;15.31;100.00;95815.22;5043436;28;20604;-78
2021/07/15 07:02:15;;;;;;;1.35;0.28;;;;;;;15.42;100.00;95816.47;5038904;28;20029;-79
2021/07/15 07:04:41;;;;;;;1.95;0.35;;;;;;;15.53;100.00;95815.91;5052266;28;20071;-78
2021/07/15 07:07:06;;;;;;;0.73;0.13;;;;;;;15.61;100.00;95815.72;5054966;28;20115;-78
2021/07/15 07:09:32;;;;;;;0.98;0.40;;;;;;;15.88;100.00;95819.25;5050689;28;20090;-78
2021/07/15 07:11:58;;;;;;;0.40;0.20;;;;;;;15.97;99.01;95822.53;5050421;28;20078;-78
2021/07/15 07:14:23;;;;;;;0.10;0.10;;;;;;;16.66;94.26;95814.09;5051212;28;20041;-79
2021/07/15 07:16:49;;;;;;;1.33;0.20;;;;;;;16.61;92.65;95821.09;5055248;28;20120;-79
2021/07/15 07:19:15;;;;;;;0.20;0.10;;;;;;;16.96;91.73;95808.34;5054566;28;20032;-78
2021/07/15 07:21:40;;;;;;;0.22;0.13;;;;;;;17.45;87.66;95817.56;5066422;28;20073;-78
2021/07/15 07:24:06;;;;;;;0.10;0.10;;;;;;;17.75;87.92;95809.81;5049654;28;20501;-79
2021/07/15 07:26:32;;;;;;;0.55;0.15;;;;;;;18.01;82.67;95816.84;5073938;28;20020;-79
2021/07/15 07:28:57;;;;;;;0.38;0.20;;;;;;;17.78;84.84;95811.28;5053966;28;20044;-79
2021/07/15 07:31:25;;;;;;;0.17;0.10;;;;;;;18.31;83.96;95813.53;5039966;28;20024;-79
2021/07/15 07:33:51;;;;;;;0.88;0.17;;;;;;;17.75;81.79;95816.97;5048676;28;20069;-79
2021/07/15 07:36:17;;;;;;;0.03;0.03;;;;;;;17.90;83.69;95814.84;5061692;28;20031;-78
2021/07/15 07:38:42;;;;;;;0.52;0.10;;;;;;;17.52;80.89;95818.34;5061926;28;20043;-79
2021/07/15 07:41:08;;;;;;;0.22;0.10;;;;;;;18.82;75.27;95807.13;5059486;28;20040;-78
2021/07/15 07:43:37;;;;;;;0.10;0.10;;;;;;;18.41;79.13;95805.03;5073751;28;20497;-79
2021/07/15 07:46:03;;;;;;;0.50;0.30;;;;;;;18.57;78.51;95804.47;5059664;28;20184;-79
2021/07/15 07:48:29;;;;;;;0.35;0.20;;;;;;;18.03;79.20;95812.09;5046682;28;20029;-79
2021/07/15 07:50:58;;;;;;;0.52;0.20;;;;;;;18.11;78.29;95814.50;5051977;28;20024;-78
2021/07/15 07:53:28;;;;;;;1.55;0.43;;;;;;;18.34;81.16;95813.06;5036755;28;20028;-78
2021/07/15 07:55:55;;;;;;;0.20;0.20;;;;;;;18.68;79.27;95802.94;5033068;28;20179;-79
2021/07/15 07:58:21;;;;;;;0.10;0.10;;;;;;;18.20;80.11;95814.22;5039620;28;20027;-79
2021/07/15 08:00:48;;;;;;;1.30;0.20;;;;;;;18.49;77.33;95810.91;5066396;28;20407;-79
2021/07/15 08:03:14;;;;;;;0.20;0.20;;;;;;;18.61;75.06;95809.16;5037919;28;20025;-79
2021/07/15 08:05:42;;;;;;;0.28;0.22;;;;;;;18.71;76.73;95805.16;5040647;28;20107;-80
2021/07/15 08:08:09;;;;;;;0.10;0.10;;;;;;;18.87;76.06;95804.59;5045912;28;20020;-78
2021/07/15 08:10:35;;;;;;;1.10;0.22;;;;;;;18.72;77.30;95804.97;5039910;28;20060;-79
2021/07/15 08:13:00;;;;;;;0.32;0.20;;;;;;;18.81;75.55;95794.84;5047798;28;20101;-79
2021/07/15 08:15:26;;;;;;;1.48;0.10;;;;;;;18.46;78.14;95802.53;5081298;28;20036;-79
2021/07/15 08:17:52;;;;;;;0.77;0.10;;;;;;;18.55;76.23;95794.06;5041107;28;20469;-81
2021/07/15 08:20:17;;;;;;;1.35;0.20;;;;;;;19.36;75.13;95797.47;5054105;28;20040;-78
2021/07/15 08:22:43;;;;;;;0.57;0.10;;;;;;;19.99;70.97;95801.56;5049536;28;20127;-78
2021/07/15 08:25:10;;;;;;;1.77;0.20;;;;;;;20.21;71.50;95796.47;5060990;28;20036;-79
2021/07/15 08:27:36;;;;;;;0.55;0.10;;;;;;;21.26;68.35;95790.28;5056294;28;20028;-79
2021/07/15 08:30:04;;;;;;;1.65;0.30;;;;;;;22.02;66.04;95793.56;5080738;28;20028;-79
2021/07/15 08:32:30;;;;;;;0.10;0.10;;;;;;;22.69;60.20;95800.00;5058406;28;20024;-79
2021/07/15 08:34:56;;;;;;;0.50;0.10;;;;;;;20.95;65.07;95808.34;5057267;28;20128;-78
2021/07/15 08:37:22;;;;;;;1.58;0.20;;;;;;;20.35;67.33;95813.91;5050325;28;20023;-81
2021/07/15 08:39:47;;;;;;;0.13;0.10;;;;;;;19.70;72.21;95813.88;5051003;28;20032;-78
2021/07/15 08:42:14;;;;;;;0.88;0.30;;;;;;;20.11;70.52;95814.91;5039132;28;20028;-78
2021/07/15 08:44:40;;;;;;;0.55;0.20;;;;;;;19.93;69.55;95816.63;5038632;28;20021;-78
2021/07/15 08:47:07;;;;;;;0.20;0.20;;;;;;;19.98;69.87;95819.41;5037499;28;20065;-78
2021/07/15 08:49:35;;;;;;;0.98;0.20;;;;;;;19.72;70.43;95814.47;5056747;28;20653;-79
2021/07/15 08:52:02;;;;;;;0.55;0.20;;;;;;;19.51;70.83;95816.53;5057708;28;20024;-79
2021/07/15 08:54:53;;;;;;;1.08;0.30;;;;;;;19.01;74.28;95815.94;5046077;28;20040;-78
2021/07/15 08:57:15;;;;;;;0.35;0.30;;;;;;;18.92;77.22;95822.63;5064935;28;20032;-79
2021/07/15 08:59:41;;;;;;;0.43;0.20;;;;;;;19.03;77.67;95828.00;5038293;28;20658;-79
2021/07/15 09:02:10;;;;;;;0.10;0.10;;;;;;;18.16;84.29;95837.81;5065680;28;20024;-78
2021/07/15 09:04:35;;;;;;;0.90;0.40;;;;;;;17.90;87.23;95836.94;5056077;28;20035;-79
2021/07/15 09:07:01;;;;;;;0.63;0.30;;;;;;;17.83;89.28;95840.69;5055037;28;20024;-79
2021/07/15 09:09:27;;;;;;;1.30;0.28;;;;;;;18.28;89.56;95843.25;5052318;28;20116;-79
2021/07/15 09:11:53;;;;;;;2.35;0.30;;;;;;;18.05;89.94;95841.97;5058590;28;20560;-78
2021/07/15 09:14:22;;;;;;;0.35;0.35;;;;;;;18.45;86.07;95841.66;5055927;28;20114;-79
2021/07/15 09:16:57;;;;;;;0.30;0.20;;;;;;;18.60;85.66;95842.13;5056054;28;20063;-79
2021/07/15 09:19:25;;;;;;;0.43;0.15;;;;;;;18.77;86.20;95844.25;5039722;28;20039;-79
2021/07/15 09:21:51;;;;;;;0.20;0.20;;;;;;;18.47;87.45;95847.56;5038924;28;20028;-79
2021/07/15 09:24:32;;;;;;;0.65;0.20;;;;;;;18.63;84.80;95842.75;5045492;28;20041;-79
2021/07/15 09:26:58;;;;;;;1.10;0.20;;;;;;;18.93;85.19;95841.03;5047772;28;20132;-79
2021/07/15 09:29:24;;;;;;;2.38;1.60;;;;;;;19.19;79.21;95850.59;5052130;28;20619;-80
2021/07/15 09:31:52;;;;;;;0.30;0.22;;;;;;;18.74;81.12;95861.50;5063753;28;20024;-79
2021/07/15 09:34:19;;;;;;;0.40;0.22;;;;;;;18.85;78.91;95857.31;5039190;28;20056;-79
2021/07/15 09:36:47;;;;;;;0.88;0.32;;;;;;;18.88;80.33;95854.22;5058231;28;20481;-79
2021/07/15 09:39:18;;;;;;;1.90;1.25;;;;;;;18.90;81.38;95857.47;5056091;28;20500;-79
2021/07/15 09:42:19;;;;;;;4.82;2.75;;;;;;;19.28;79.70;95851.09;5072539;28;20035;-79
2021/07/15 09:44:48;;;;;;;1.00;0.40;;;;;;;18.93;78.89;95856.22;5059577;28;20029;-80
2021/07/15 09:47:39;;;;;;;0.25;0.25;;;;;;;19.27;78.45;95850.28;5048122;28;20465;-79
2021/07/15 09:50:16;;;;;;;1.20;0.40;;;;;;;19.44;77.43;95857.69;5066939;28;20103;-78
2021/07/15 09:52:43;;;;;;;0.20;0.20;;;;;;;19.85;76.81;95853.47;5059860;28;20050;-78
2021/07/15 09:55:18;;;;;;;0.90;0.30;;;;;;;20.46;72.72;95863.06;5037921;28;20028;-79
2021/07/15 09:57:44;;;;;;;0.77;0.20;;;;;;;20.19;73.71;95854.66;5041011;28;20101;-79
2021/07/15 10:00:11;;;;;;;0.45;0.20;;;;;;;20.27;73.98;95862.31;5036390;28;20021;-79
2021/07/15 10:02:37;;;;;;;0.47;0.30;;;;;;;20.19;74.19;95852.78;5039210;28;20043;-80
2021/07/15 10:05:03;;;;;;;0.60;0.30;;;;;;;21.07;71.87;95855.66;5056393;28;20096;-79
2021/07/15 10:07:29;;;;;;;0.63;0.30;;;;;;;20.64;72.04;95856.81;5041365;28;20056;-78
2021/07/15 10:10:14;;;;;;;0.45;0.20;;;;;;;20.56;71.05;95858.00;5055340;28;20807;-79
2021/07/15 10:12:40;;;;;;;0.65;0.32;;;;;;;20.55;71.30;95856.34;5036623;28;20024;-79
2021/07/15 10:15:14;;;;;;;1.25;0.30;;;;;;;20.30;71.56;95859.19;5055124;28;20025;-79
2021/07/15 10:17:47;;;;;;;0.28;0.20;;;;;;;21.51;66.43;95854.19;5049110;28;20040;-79
2021/07/15 10:20:18;;;;;;;0.20;0.20;;;;;;;20.82;68.29;95858.56;5044327;28;20178;-79
2021/07/15 10:22:53;;;;;;;1.55;0.47;;;;;;;20.38;69.02;95858.84;5047808;28;20043;-79
2021/07/15 10:25:19;;;;;;;1.75;0.55;;;;;;;20.93;68.25;95857.75;5069136;28;20894;-79
2021/07/15 10:27:45;;;;;;;1.00;0.45;;;;;;;21.72;65.36;95855.41;5062738;28;20185;-79
2021/07/15 10:30:12;;;;;;;0.50;0.30;;;;;;;21.20;66.47;95863.44;5058141;28;20119;-79
2021/07/15 10:32:39;;;;;;;1.05;0.35;;;;;;;21.05;64.66;95863.88;5048530;28;20025;-79
2021/07/15 10:35:08;;;;;;;0.90;0.30;;;;;;;21.03;67.63;95871.34;5060476;28;20123;-79
2021/07/15 10:37:43;;;;;;;0.20;0.20;;;;;;;20.87;65.47;95862.16;5043214;28;20051;-79
2021/07/15 10:40:15;;;;;;;1.55;0.45;;;;;;;21.14;66.00;95864.34;5059306;28;20561;-79
2021/07/15 10:42:41;;;;;;;0.20;0.20;;;;;;;20.83;65.33;95869.03;5050536;28;20478;-79
2021/07/15 10:45:08;;;;;;;0.32;0.20;;;;;;;20.69;67.04;95865.78;5060820;28;20095;-79
2021/07/15 10:47:36;;;;;;;1.13;0.30;;;;;;;21.02;64.56;95863.53;5078164;28;20047;-79
2021/07/15 10:50:03;;;;;;;0.28;0.20;;;;;;;20.69;64.84;95867.59;5065426;28;20063;-79
2021/07/15 10:52:32;;;;;;;0.20;0.17;;;;;;;20.78;67.08;95863.56;5063407;28;20055;-79
2021/07/15 10:55:00;;;;;;;0.13;0.13;;;;;;;21.42;63.73;95866.31;5065278;28;20122;-79
2021/07/15 10:57:26;;;;;;;0.70;0.20;;;;;;;21.27;64.08;95860.63;5036471;28;20134;-79
2021/07/15 10:59:52;;;;;;;0.52;0.20;;;;;;;20.85;66.32;95868.78;5055522;28;20039;-79
2021/07/15 11:02:24;;;;;;;2.40;0.45;;;;;;;21.10;63.79;95865.88;5057819;28;20037;-79
2021/07/15 11:04:52;;;;;;;0.40;0.30;;;;;;;21.72;65.30;95860.75;5046122;28;20029;-79
2021/07/15 11:07:31;;;;;;;1.27;0.40;;;;;;;21.64;65.12;95861.13;5048638;28;20123;-79
2021/07/15 11:10:16;;;;;;;0.25;0.20;;;;;;;22.95;59.36;95855.63;5053331;28;20044;-79
2021/07/15 11:13:00;;;;;;;0.82;0.30;;;;;;;22.61;61.57;95854.84;5031207;28;20039;-78
2021/07/15 11:15:50;;;;;;;1.23;0.30;;;;;;;22.62;60.07;95852.97;5064684;28;20036;-79
2021/07/15 11:18:41;;;;;;;3.67;2.33;;;;;;;22.38;61.88;95850.44;5064379;28;20036;-79
2021/07/15 11:21:31;;;;;;;6.18;3.72;;;;;;;23.22;58.68;95842.31;5041201;28;20059;-79
2021/07/15 11:24:03;;;;;;;3.60;1.10;;;;;;;23.12;57.46;95855.59;5038306;28;20072;-79
2021/07/15 11:26:34;;;;;;;7.47;5.05;;;;;;;23.22;57.70;95855.75;5070419;28;20474;-79
2021/07/15 11:29:00;;;;;;;3.72;1.98;;;;;;;22.90;57.28;95860.06;5057100;28;20126;-79
2021/07/15 11:31:40;;;;;;;1.30;0.30;;;;;;;22.77;58.07;95856.69;5047760;28;20498;-79
2021/07/15 11:34:06;;;;;;;0.77;0.45;;;;;;;21.74;61.84;95858.66;5033744;28;20032;-80
2021/07/15 11:36:32;;;;;;;0.82;0.28;;;;;;;22.10;61.83;95875.38;5063822;28;20470;-80